Terminal Aerodrome Forecast
Issued by NWS

Home | Current Version | Previous Version | Text Only | Print | Product List | Glossary On
Versions: 1 2 3 4 5 6 7 8 9 10 11 12
000
FTUS45 KVEF 012300
TAFVGT
TAF
KVGT 012320Z 0200/0224 35012G22KT P6SM FEW120
     FM020100 04009KT P6SM SKC
     FM020800 35007KT P6SM SKC
     FM021800 07008KT P6SM SKC=

USA.gov is the U.S. government's official web portal to all federal, state and local government web resources and services.